sensor_id;sensor_type;location;lat;lon;timestamp;P1;durP1;ratioP1;P2;durP2;ratioP2
60354;SDS011;46198;51.464;-0.066;2023-04-24T00:01:43;46.37;;;23.03;;
60354;SDS011;46198;51.464;-0.066;2023-04-24T00:04:11;46.20;;;22.80;;
60354;SDS011;46198;51.464;-0.066;2023-04-24T00:06:43;42.20;;;23.00;;
60354;SDS011;46198;51.464;-0.066;2023-04-24T00:09:15;41.20;;;22.00;;
60354;SDS011;46198;51.464;-0.066;2023-04-24T00:11:43;45.07;;;24.07;;
60354;SDS011;46198;51.464;-0.066;2023-04-24T00:14:13;43.77;;;23.23;;
60354;SDS011;46198;51.464;-0.066;2023-04-24T00:16:41;45.83;;;22.43;;
60354;SDS011;46198;51.464;-0.066;2023-04-24T00:19:09;45.10;;;21.53;;
60354;SDS011;46198;51.464;-0.066;2023-04-24T00:21:38;43.37;;;23.40;;
60354;SDS011;46198;51.464;-0.066;2023-04-24T00:24:07;44.77;;;22.60;;
60354;SDS011;46198;51.464;-0.066;2023-04-24T00:26:36;43.40;;;22.13;;
60354;SDS011;46198;51.464;-0.066;2023-04-24T00:29:04;40.83;;;21.47;;
60354;SDS011;46198;51.464;-0.066;2023-04-24T00:31:33;40.60;;;20.17;;
60354;SDS011;46198;51.464;-0.066;2023-04-24T00:34:02;44.33;;;22.57;;
60354;SDS011;46198;51.464;-0.066;2023-04-24T00:36:30;44.50;;;23.17;;
60354;SDS011;46198;51.464;-0.066;2023-04-24T00:38:59;39.97;;;22.37;;
60354;SDS011;46198;51.464;-0.066;2023-04-24T00:41:27;41.27;;;21.13;;
60354;SDS011;46198;51.464;-0.066;2023-04-24T00:43:55;40.30;;;21.13;;
60354;SDS011;46198;51.464;-0.066;2023-04-24T00:46:23;43.97;;;21.50;;
60354;SDS011;46198;51.464;-0.066;2023-04-24T00:48:53;36.70;;;20.60;;
60354;SDS011;46198;51.464;-0.066;2023-04-24T00:51:21;42.07;;;21.67;;
60354;SDS011;46198;51.464;-0.066;2023-04-24T00:53:51;41.70;;;21.83;;
60354;SDS011;46198;51.464;-0.066;2023-04-24T00:56:19;39.63;;;21.07;;
60354;SDS011;46198;51.464;-0.066;2023-04-24T00:58:47;41.10;;;19.90;;
60354;SDS011;46198;51.464;-0.066;2023-04-24T01:01:15;37.83;;;19.60;;
60354;SDS011;46198;51.464;-0.066;2023-04-24T01:03:44;40.47;;;20.43;;
60354;SDS011;46198;51.464;-0.066;2023-04-24T01:06:14;38.80;;;19.93;;
60354;SDS011;46198;51.464;-0.066;2023-04-24T01:08:43;37.60;;;19.93;;
60354;SDS011;46198;51.464;-0.066;2023-04-24T01:11:12;39.53;;;20.20;;
60354;SDS011;46198;51.464;-0.066;2023-04-24T01:17:05;37.43;;;19.97;;
60354;SDS011;46198;51.464;-0.066;2023-04-24T01:19:33;35.90;;;18.37;;
60354;SDS011;46198;51.464;-0.066;2023-04-24T01:24:40;39.83;;;20.87;;
60354;SDS011;46198;51.464;-0.066;2023-04-24T01:27:10;35.13;;;18.60;;
60354;SDS011;46198;51.464;-0.066;2023-04-24T01:29:39;34.20;;;18.53;;
60354;SDS011;46198;51.464;-0.066;2023-04-24T01:32:09;35.00;;;18.73;;
60354;SDS011;46198;51.464;-0.066;2023-04-24T01:34:37;36.43;;;18.43;;
60354;SDS011;46198;51.464;-0.066;2023-04-24T01:37:06;39.37;;;19.93;;
60354;SDS011;46198;51.464;-0.066;2023-04-24T01:39:36;37.40;;;19.97;;
60354;SDS011;46198;51.464;-0.066;2023-04-24T01:42:04;37.20;;;19.73;;
60354;SDS011;46198;51.464;-0.066;2023-04-24T01:44:33;40.43;;;20.27;;
60354;SDS011;46198;51.464;-0.066;2023-04-24T01:47:02;46.03;;;21.07;;
60354;SDS011;46198;51.464;-0.066;2023-04-24T01:49:31;41.13;;;20.40;;
60354;SDS011;46198;51.464;-0.066;2023-04-24T01:52:00;38.30;;;19.20;;
60354;SDS011;46198;51.464;-0.066;2023-04-24T01:54:29;38.20;;;20.93;;
60354;SDS011;46198;51.464;-0.066;2023-04-24T01:56:59;39.50;;;19.63;;
60354;SDS011;46198;51.464;-0.066;2023-04-24T01:59:28;42.90;;;21.17;;
60354;SDS011;46198;51.464;-0.066;2023-04-24T02:01:59;42.72;;;20.60;;
60354;SDS011;46198;51.464;-0.066;2023-04-24T02:04:27;36.57;;;20.03;;
60354;SDS011;46198;51.464;-0.066;2023-04-24T02:06:55;37.60;;;20.00;;
60354;SDS011;46198;51.464;-0.066;2023-04-24T02:09:23;36.87;;;19.03;;
60354;SDS011;46198;51.464;-0.066;2023-04-24T02:11:52;33.43;;;19.17;;
60354;SDS011;46198;51.464;-0.066;2023-04-24T02:14:21;36.07;;;18.93;;
60354;SDS011;46198;51.464;-0.066;2023-04-24T02:16:49;37.23;;;18.97;;
60354;SDS011;46198;51.464;-0.066;2023-04-24T02:19:17;42.27;;;20.00;;
60354;SDS011;46198;51.464;-0.066;2023-04-24T02:21:45;37.27;;;19.17;;
60354;SDS011;46198;51.464;-0.066;2023-04-24T02:24:13;38.47;;;19.80;;
60354;SDS011;46198;51.464;-0.066;2023-04-24T02:26:42;36.03;;;18.73;;
60354;SDS011;46198;51.464;-0.066;2023-04-24T02:29:10;36.23;;;19.47;;
60354;SDS011;46198;51.464;-0.066;2023-04-24T02:31:39;39.23;;;19.30;;
60354;SDS011;46198;51.464;-0.066;2023-04-24T02:34:07;37.87;;;18.77;;
60354;SDS011;46198;51.464;-0.066;2023-04-24T02:36:35;32.97;;;17.30;;
60354;SDS011;46198;51.464;-0.066;2023-04-24T02:39:04;36.80;;;19.63;;
60354;SDS011;46198;51.464;-0.066;2023-04-24T02:41:32;38.53;;;19.87;;
60354;SDS011;46198;51.464;-0.066;2023-04-24T02:44:00;36.37;;;18.50;;
60354;SDS011;46198;51.464;-0.066;2023-04-24T02:46:28;35.20;;;18.37;;
60354;SDS011;46198;51.464;-0.066;2023-04-24T02:48:57;41.87;;;19.63;;
60354;SDS011;46198;51.464;-0.066;2023-04-24T02:51:25;38.07;;;19.53;;
60354;SDS011;46198;51.464;-0.066;2023-04-24T02:53:54;35.17;;;19.23;;
60354;SDS011;46198;51.464;-0.066;2023-04-24T02:56:22;37.17;;;19.63;;
60354;SDS011;46198;51.464;-0.066;2023-04-24T02:58:50;38.30;;;19.77;;
60354;SDS011;46198;51.464;-0.066;2023-04-24T03:01:18;44.40;;;18.70;;
60354;SDS011;46198;51.464;-0.066;2023-04-24T03:03:46;35.37;;;18.10;;
60354;SDS011;46198;51.464;-0.066;2023-04-24T03:06:16;32.63;;;17.33;;
60354;SDS011;46198;51.464;-0.066;2023-04-24T03:08:44;34.37;;;18.40;;
60354;SDS011;46198;51.464;-0.066;2023-04-24T03:11:12;34.20;;;17.50;;
60354;SDS011;46198;51.464;-0.066;2023-04-24T03:13:41;39.63;;;19.10;;
60354;SDS011;46198;51.464;-0.066;2023-04-24T03:16:09;30.90;;;16.43;;
60354;SDS011;46198;51.464;-0.066;2023-04-24T03:18:37;31.47;;;16.93;;
60354;SDS011;46198;51.464;-0.066;2023-04-24T03:21:06;34.30;;;16.93;;
60354;SDS011;46198;51.464;-0.066;2023-04-24T03:23:36;32.13;;;17.47;;
60354;SDS011;46198;51.464;-0.066;2023-04-24T03:26:04;35.00;;;18.27;;
60354;SDS011;46198;51.464;-0.066;2023-04-24T03:28:35;32.22;;;17.33;;
60354;SDS011;46198;51.464;-0.066;2023-04-24T03:31:03;33.53;;;17.70;;
60354;SDS011;46198;51.464;-0.066;2023-04-24T03:33:34;32.58;;;16.83;;
60354;SDS011;46198;51.464;-0.066;2023-04-24T03:36:02;33.40;;;19.13;;
60354;SDS011;46198;51.464;-0.066;2023-04-24T03:38:40;33.77;;;17.40;;
60354;SDS011;46198;51.464;-0.066;2023-04-24T03:41:26;34.90;;;19.07;;
60354;SDS011;46198;51.464;-0.066;2023-04-24T03:44:03;32.67;;;16.97;;
60354;SDS011;46198;51.464;-0.066;2023-04-24T03:46:32;33.53;;;17.27;;
60354;SDS011;46198;51.464;-0.066;2023-04-24T03:49:01;31.93;;;16.87;;
60354;SDS011;46198;51.464;-0.066;2023-04-24T03:51:33;33.07;;;17.93;;
60354;SDS011;46198;51.464;-0.066;2023-04-24T03:54:12;29.30;;;15.77;;
60354;SDS011;46198;51.464;-0.066;2023-04-24T03:56:40;34.20;;;17.43;;
60354;SDS011;46198;51.464;-0.066;2023-04-24T03:59:08;30.43;;;17.83;;
60354;SDS011;46198;51.464;-0.066;2023-04-24T04:01:38;32.97;;;17.00;;
60354;SDS011;46198;51.464;-0.066;2023-04-24T04:04:13;33.40;;;17.83;;
60354;SDS011;46198;51.464;-0.066;2023-04-24T04:06:43;29.67;;;16.87;;
60354;SDS011;46198;51.464;-0.066;2023-04-24T04:09:14;34.00;;;17.67;;
60354;SDS011;46198;51.464;-0.066;2023-04-24T04:11:42;29.87;;;17.27;;
60354;SDS011;46198;51.464;-0.066;2023-04-24T04:14:11;31.73;;;16.70;;
60354;SDS011;46198;51.464;-0.066;2023-04-24T04:16:42;27.60;;;15.80;;
60354;SDS011;46198;51.464;-0.066;2023-04-24T04:19:11;30.27;;;16.37;;
60354;SDS011;46198;51.464;-0.066;2023-04-24T04:21:39;34.70;;;15.93;;
60354;SDS011;46198;51.464;-0.066;2023-04-24T04:24:16;29.03;;;16.30;;
60354;SDS011;46198;51.464;-0.066;2023-04-24T04:26:45;28.80;;;15.02;;
60354;SDS011;46198;51.464;-0.066;2023-04-24T04:29:27;28.17;;;15.57;;
60354;SDS011;46198;51.464;-0.066;2023-04-24T04:31:55;26.93;;;14.67;;
60354;SDS011;46198;51.464;-0.066;2023-04-24T04:34:24;27.20;;;15.93;;
60354;SDS011;46198;51.464;-0.066;2023-04-24T04:36:52;28.73;;;16.73;;
60354;SDS011;46198;51.464;-0.066;2023-04-24T04:39:44;30.88;;;16.98;;
60354;SDS011;46198;51.464;-0.066;2023-04-24T04:42:17;30.67;;;16.67;;
60354;SDS011;46198;51.464;-0.066;2023-04-24T04:44:45;36.17;;;18.13;;
60354;SDS011;46198;51.464;-0.066;2023-04-24T04:47:17;30.97;;;18.23;;
60354;SDS011;46198;51.464;-0.066;2023-04-24T04:49:49;32.63;;;16.13;;
60354;SDS011;46198;51.464;-0.066;2023-04-24T04:52:22;29.70;;;17.10;;
60354;SDS011;46198;51.464;-0.066;2023-04-24T04:55:04;34.17;;;17.50;;
60354;SDS011;46198;51.464;-0.066;2023-04-24T04:58:01;37.60;;;18.00;;
60354;SDS011;46198;51.464;-0.066;2023-04-24T05:00:30;32.63;;;16.70;;
60354;SDS011;46198;51.464;-0.066;2023-04-24T05:03:07;33.37;;;17.37;;
60354;SDS011;46198;51.464;-0.066;2023-04-24T05:05:50;31.00;;;17.17;;
60354;SDS011;46198;51.464;-0.066;2023-04-24T05:08:18;31.63;;;15.93;;
60354;SDS011;46198;51.464;-0.066;2023-04-24T05:10:54;28.27;;;15.33;;
60354;SDS011;46198;51.464;-0.066;2023-04-24T05:13:25;30.23;;;15.83;;
60354;SDS011;46198;51.464;-0.066;2023-04-24T05:16:09;28.67;;;15.27;;
60354;SDS011;46198;51.464;-0.066;2023-04-24T05:18:38;27.80;;;14.63;;
60354;SDS011;46198;51.464;-0.066;2023-04-24T05:21:08;29.05;;;15.18;;
60354;SDS011;46198;51.464;-0.066;2023-04-24T05:23:39;27.23;;;14.73;;
60354;SDS011;46198;51.464;-0.066;2023-04-24T05:26:09;26.13;;;13.93;;
60354;SDS011;46198;51.464;-0.066;2023-04-24T05:28:37;24.93;;;12.90;;
60354;SDS011;46198;51.464;-0.066;2023-04-24T05:31:10;25.03;;;12.93;;
60354;SDS011;46198;51.464;-0.066;2023-04-24T05:33:39;25.97;;;13.50;;
60354;SDS011;46198;51.464;-0.066;2023-04-24T05:36:07;26.13;;;13.60;;
60354;SDS011;46198;51.464;-0.066;2023-04-24T05:38:35;27.93;;;13.27;;
60354;SDS011;46198;51.464;-0.066;2023-04-24T05:41:03;24.17;;;12.47;;
60354;SDS011;46198;51.464;-0.066;2023-04-24T05:43:33;23.23;;;13.30;;
60354;SDS011;46198;51.464;-0.066;2023-04-24T05:46:01;26.23;;;13.70;;
60354;SDS011;46198;51.464;-0.066;2023-04-24T05:48:29;25.17;;;12.40;;
60354;SDS011;46198;51.464;-0.066;2023-04-24T05:51:00;21.02;;;12.02;;
60354;SDS011;46198;51.464;-0.066;2023-04-24T05:53:28;24.57;;;12.13;;
60354;SDS011;46198;51.464;-0.066;2023-04-24T05:55:57;22.07;;;11.20;;
60354;SDS011;46198;51.464;-0.066;2023-04-24T05:58:25;26.63;;;11.20;;
60354;SDS011;46198;51.464;-0.066;2023-04-24T06:00:55;19.27;;;11.10;;
60354;SDS011;46198;51.464;-0.066;2023-04-24T06:03:25;20.67;;;11.80;;
60354;SDS011;46198;51.464;-0.066;2023-04-24T06:05:54;18.57;;;8.27;;
60354;SDS011;46198;51.464;-0.066;2023-04-24T06:08:23;13.47;;;6.70;;
60354;SDS011;46198;51.464;-0.066;2023-04-24T06:10:51;15.07;;;7.47;;
60354;SDS011;46198;51.464;-0.066;2023-04-24T06:13:21;9.70;;;5.50;;
60354;SDS011;46198;51.464;-0.066;2023-04-24T06:16:09;13.17;;;5.67;;
60354;SDS011;46198;51.464;-0.066;2023-04-24T06:18:40;12.80;;;5.00;;
60354;SDS011;46198;51.464;-0.066;2023-04-24T06:21:08;12.70;;;5.67;;
60354;SDS011;46198;51.464;-0.066;2023-04-24T06:23:36;13.00;;;6.03;;
60354;SDS011;46198;51.464;-0.066;2023-04-24T06:26:04;11.90;;;5.87;;
60354;SDS011;46198;51.464;-0.066;2023-04-24T06:28:32;13.00;;;5.30;;
60354;SDS011;46198;51.464;-0.066;2023-04-24T06:31:00;16.40;;;5.43;;
60354;SDS011;46198;51.464;-0.066;2023-04-24T06:33:30;9.77;;;4.70;;
60354;SDS011;46198;51.464;-0.066;2023-04-24T06:35:58;10.50;;;4.00;;
60354;SDS011;46198;51.464;-0.066;2023-04-24T06:38:26;9.17;;;4.00;;
60354;SDS011;46198;51.464;-0.066;2023-04-24T06:40:56;11.17;;;4.07;;
60354;SDS011;46198;51.464;-0.066;2023-04-24T06:43:24;9.93;;;3.83;;
60354;SDS011;46198;51.464;-0.066;2023-04-24T06:45:52;9.67;;;3.70;;
60354;SDS011;46198;51.464;-0.066;2023-04-24T06:48:20;6.00;;;3.10;;
60354;SDS011;46198;51.464;-0.066;2023-04-24T06:50:50;7.83;;;3.50;;
60354;SDS011;46198;51.464;-0.066;2023-04-24T06:53:18;6.87;;;2.90;;
60354;SDS011;46198;51.464;-0.066;2023-04-24T06:55:46;6.70;;;2.30;;
60354;SDS011;46198;51.464;-0.066;2023-04-24T06:58:15;6.83;;;3.43;;
60354;SDS011;46198;51.464;-0.066;2023-04-24T07:00:43;5.37;;;2.70;;
60354;SDS011;46198;51.464;-0.066;2023-04-24T07:03:12;4.70;;;2.37;;
60354;SDS011;46198;51.464;-0.066;2023-04-24T07:05:40;7.37;;;3.07;;
60354;SDS011;46198;51.464;-0.066;2023-04-24T07:08:10;8.33;;;3.60;;
60354;SDS011;46198;51.464;-0.066;2023-04-24T07:10:39;6.05;;;3.03;;
60354;SDS011;46198;51.464;-0.066;2023-04-24T07:13:07;6.00;;;2.87;;
60354;SDS011;46198;51.464;-0.066;2023-04-24T07:15:35;5.37;;;3.13;;
60354;SDS011;46198;51.464;-0.066;2023-04-24T07:18:03;6.00;;;2.83;;
60354;SDS011;46198;51.464;-0.066;2023-04-24T07:20:32;6.10;;;3.03;;
60354;SDS011;46198;51.464;-0.066;2023-04-24T07:23:00;7.53;;;3.00;;
60354;SDS011;46198;51.464;-0.066;2023-04-24T07:25:30;6.40;;;2.47;;
60354;SDS011;46198;51.464;-0.066;2023-04-24T07:27:59;4.60;;;2.20;;
60354;SDS011;46198;51.464;-0.066;2023-04-24T07:30:27;5.23;;;2.40;;
60354;SDS011;46198;51.464;-0.066;2023-04-24T07:32:55;7.30;;;2.90;;
60354;SDS011;46198;51.464;-0.066;2023-04-24T07:35:23;4.70;;;1.83;;
60354;SDS011;46198;51.464;-0.066;2023-04-24T07:37:52;7.07;;;2.97;;
60354;SDS011;46198;51.464;-0.066;2023-04-24T07:40:20;5.93;;;2.93;;
60354;SDS011;46198;51.464;-0.066;2023-04-24T07:42:51;6.23;;;2.73;;
60354;SDS011;46198;51.464;-0.066;2023-04-24T07:45:19;6.80;;;3.30;;
60354;SDS011;46198;51.464;-0.066;2023-04-24T07:47:47;6.07;;;2.90;;
60354;SDS011;46198;51.464;-0.066;2023-04-24T07:50:15;7.50;;;2.93;;
60354;SDS011;46198;51.464;-0.066;2023-04-24T07:52:43;3.50;;;2.58;;
60354;SDS011;46198;51.464;-0.066;2023-04-24T07:55:11;6.40;;;2.67;;
60354;SDS011;46198;51.464;-0.066;2023-04-24T07:57:39;6.70;;;2.77;;
60354;SDS011;46198;51.464;-0.066;2023-04-24T08:00:09;9.38;;;2.50;;
60354;SDS011;46198;51.464;-0.066;2023-04-24T08:05:06;7.07;;;2.47;;
60354;SDS011;46198;51.464;-0.066;2023-04-24T08:07:35;5.82;;;3.10;;
60354;SDS011;46198;51.464;-0.066;2023-04-24T08:10:04;5.28;;;3.00;;
60354;SDS011;46198;51.464;-0.066;2023-04-24T08:12:33;7.32;;;2.80;;
60354;SDS011;46198;51.464;-0.066;2023-04-24T08:15:01;7.60;;;3.65;;
60354;SDS011;46198;51.464;-0.066;2023-04-24T08:17:31;7.07;;;3.50;;
60354;SDS011;46198;51.464;-0.066;2023-04-24T08:20:00;7.22;;;2.92;;
60354;SDS011;46198;51.464;-0.066;2023-04-24T08:22:29;5.95;;;3.10;;
60354;SDS011;46198;51.464;-0.066;2023-04-24T08:24:59;9.73;;;3.85;;
60354;SDS011;46198;51.464;-0.066;2023-04-24T08:27:28;7.55;;;4.07;;
60354;SDS011;46198;51.464;-0.066;2023-04-24T08:29:56;8.48;;;3.67;;
60354;SDS011;46198;51.464;-0.066;2023-04-24T08:32:25;7.03;;;3.45;;
60354;SDS011;46198;51.464;-0.066;2023-04-24T08:34:56;7.53;;;3.33;;
60354;SDS011;46198;51.464;-0.066;2023-04-24T08:37:25;9.75;;;3.28;;
60354;SDS011;46198;51.464;-0.066;2023-04-24T08:39:54;8.10;;;3.58;;
60354;SDS011;46198;51.464;-0.066;2023-04-24T08:42:22;6.90;;;2.97;;
60354;SDS011;46198;51.464;-0.066;2023-04-24T08:44:51;8.65;;;3.08;;
60354;SDS011;46198;51.464;-0.066;2023-04-24T08:47:19;5.82;;;3.10;;
60354;SDS011;46198;51.464;-0.066;2023-04-24T08:49:48;7.53;;;3.67;;
60354;SDS011;46198;51.464;-0.066;2023-04-24T08:52:19;5.80;;;3.70;;
60354;SDS011;46198;51.464;-0.066;2023-04-24T08:54:49;7.25;;;3.47;;
60354;SDS011;46198;51.464;-0.066;2023-04-24T08:57:17;5.28;;;3.65;;
60354;SDS011;46198;51.464;-0.066;2023-04-24T08:59:45;7.85;;;3.30;;
60354;SDS011;46198;51.464;-0.066;2023-04-24T09:02:14;6.82;;;3.55;;
60354;SDS011;46198;51.464;-0.066;2023-04-24T09:04:44;6.90;;;3.75;;
60354;SDS011;46198;51.464;-0.066;2023-04-24T09:07:14;6.82;;;3.47;;
60354;SDS011;46198;51.464;-0.066;2023-04-24T09:09:45;10.82;;;3.95;;
60354;SDS011;46198;51.464;-0.066;2023-04-24T09:12:15;9.40;;;3.70;;
60354;SDS011;46198;51.464;-0.066;2023-04-24T09:14:43;10.40;;;3.72;;
60354;SDS011;46198;51.464;-0.066;2023-04-24T09:17:12;8.75;;;3.55;;
60354;SDS011;46198;51.464;-0.066;2023-04-24T09:19:40;8.63;;;4.10;;
60354;SDS011;46198;51.464;-0.066;2023-04-24T09:22:09;8.48;;;3.78;;
60354;SDS011;46198;51.464;-0.066;2023-04-24T09:24:38;8.98;;;3.55;;
60354;SDS011;46198;51.464;-0.066;2023-04-24T09:27:08;6.85;;;4.00;;
60354;SDS011;46198;51.464;-0.066;2023-04-24T09:29:39;8.98;;;3.80;;
60354;SDS011;46198;51.464;-0.066;2023-04-24T09:32:17;7.28;;;3.97;;
60354;SDS011;46198;51.464;-0.066;2023-04-24T09:34:48;10.00;;;4.35;;
60354;SDS011;46198;51.464;-0.066;2023-04-24T09:37:27;10.40;;;3.88;;
60354;SDS011;46198;51.464;-0.066;2023-04-24T09:40:08;6.97;;;4.20;;
60354;SDS011;46198;51.464;-0.066;2023-04-24T09:42:40;7.05;;;4.32;;
60354;SDS011;46198;51.464;-0.066;2023-04-24T09:45:10;9.25;;;4.25;;
60354;SDS011;46198;51.464;-0.066;2023-04-24T09:47:41;8.88;;;4.05;;
60354;SDS011;46198;51.464;-0.066;2023-04-24T09:50:11;6.88;;;3.70;;
60354;SDS011;46198;51.464;-0.066;2023-04-24T09:52:41;7.28;;;3.90;;
60354;SDS011;46198;51.464;-0.066;2023-04-24T09:55:12;8.35;;;4.00;;
60354;SDS011;46198;51.464;-0.066;2023-04-24T09:57:48;9.95;;;4.15;;
60354;SDS011;46198;51.464;-0.066;2023-04-24T10:00:18;6.43;;;4.15;;
60354;SDS011;46198;51.464;-0.066;2023-04-24T10:02:49;8.43;;;4.60;;
60354;SDS011;46198;51.464;-0.066;2023-04-24T10:05:18;9.55;;;4.35;;
60354;SDS011;46198;51.464;-0.066;2023-04-24T10:07:55;10.63;;;4.75;;
60354;SDS011;46198;51.464;-0.066;2023-04-24T10:10:24;10.18;;;5.03;;
60354;SDS011;46198;51.464;-0.066;2023-04-24T10:12:55;9.30;;;4.70;;
60354;SDS011;46198;51.464;-0.066;2023-04-24T10:15:23;7.40;;;4.20;;
60354;SDS011;46198;51.464;-0.066;2023-04-24T10:17:53;7.10;;;4.10;;
60354;SDS011;46198;51.464;-0.066;2023-04-24T10:20:22;9.85;;;4.50;;
60354;SDS011;46198;51.464;-0.066;2023-04-24T10:22:51;9.13;;;4.65;;
60354;SDS011;46198;51.464;-0.066;2023-04-24T10:25:21;9.20;;;4.97;;
60354;SDS011;46198;51.464;-0.066;2023-04-24T10:27:51;12.07;;;5.07;;
60354;SDS011;46198;51.464;-0.066;2023-04-24T10:30:26;9.52;;;5.07;;
60354;SDS011;46198;51.464;-0.066;2023-04-24T10:32:55;9.80;;;4.60;;
60354;SDS011;46198;51.464;-0.066;2023-04-24T10:35:23;7.97;;;4.90;;
60354;SDS011;46198;51.464;-0.066;2023-04-24T10:37:54;14.02;;;6.68;;
60354;SDS011;46198;51.464;-0.066;2023-04-24T10:40:25;11.63;;;5.57;;
60354;SDS011;46198;51.464;-0.066;2023-04-24T10:42:54;10.18;;;5.03;;
60354;SDS011;46198;51.464;-0.066;2023-04-24T10:45:26;13.55;;;5.50;;
60354;SDS011;46198;51.464;-0.066;2023-04-24T10:47:57;9.32;;;4.65;;
60354;SDS011;46198;51.464;-0.066;2023-04-24T10:50:41;9.85;;;4.40;;
60354;SDS011;46198;51.464;-0.066;2023-04-24T10:53:15;15.20;;;5.20;;
60354;SDS011;46198;51.464;-0.066;2023-04-24T10:55:46;9.18;;;4.60;;
60354;SDS011;46198;51.464;-0.066;2023-04-24T10:58:15;9.80;;;5.00;;
60354;SDS011;46198;51.464;-0.066;2023-04-24T11:00:47;9.13;;;5.00;;
60354;SDS011;46198;51.464;-0.066;2023-04-24T11:03:24;13.10;;;5.13;;
60354;SDS011;46198;51.464;-0.066;2023-04-24T11:05:58;11.70;;;5.25;;
60354;SDS011;46198;51.464;-0.066;2023-04-24T11:08:28;11.63;;;5.30;;
60354;SDS011;46198;51.464;-0.066;2023-04-24T11:10:58;8.70;;;4.97;;
60354;SDS011;46198;51.464;-0.066;2023-04-24T11:16:13;10.25;;;5.00;;
60354;SDS011;46198;51.464;-0.066;2023-04-24T11:18:50;12.55;;;4.43;;
60354;SDS011;46198;51.464;-0.066;2023-04-24T11:21:22;10.20;;;4.45;;
60354;SDS011;46198;51.464;-0.066;2023-04-24T11:23:50;12.25;;;4.90;;
60354;SDS011;46198;51.464;-0.066;2023-04-24T11:26:18;11.00;;;4.72;;
60354;SDS011;46198;51.464;-0.066;2023-04-24T11:28:50;8.35;;;5.00;;
60354;SDS011;46198;51.464;-0.066;2023-04-24T11:31:36;13.20;;;5.25;;
60354;SDS011;46198;51.464;-0.066;2023-04-24T11:34:06;10.70;;;5.35;;
60354;SDS011;46198;51.464;-0.066;2023-04-24T11:36:35;9.77;;;4.90;;
60354;SDS011;46198;51.464;-0.066;2023-04-24T11:39:04;9.32;;;6.10;;
60354;SDS011;46198;51.464;-0.066;2023-04-24T11:41:33;10.38;;;5.25;;
60354;SDS011;46198;51.464;-0.066;2023-04-24T11:44:01;7.25;;;4.88;;
60354;SDS011;46198;51.464;-0.066;2023-04-24T11:46:31;12.70;;;5.63;;
60354;SDS011;46198;51.464;-0.066;2023-04-24T11:49:00;10.80;;;4.68;;
60354;SDS011;46198;51.464;-0.066;2023-04-24T11:51:28;8.02;;;5.22;;
60354;SDS011;46198;51.464;-0.066;2023-04-24T11:54:16;11.77;;;6.88;;
60354;SDS011;46198;51.464;-0.066;2023-04-24T11:56:44;9.40;;;5.45;;
60354;SDS011;46198;51.464;-0.066;2023-04-24T11:59:13;11.95;;;5.55;;
60354;SDS011;46198;51.464;-0.066;2023-04-24T12:01:44;11.45;;;5.18;;
60354;SDS011;46198;51.464;-0.066;2023-04-24T12:04:14;13.23;;;7.00;;
60354;SDS011;46198;51.464;-0.066;2023-04-24T12:06:58;10.02;;;5.50;;
60354;SDS011;46198;51.464;-0.066;2023-04-24T12:09:26;10.15;;;5.20;;
60354;SDS011;46198;51.464;-0.066;2023-04-24T12:11:55;7.78;;;5.60;;
60354;SDS011;46198;51.464;-0.066;2023-04-24T12:14:24;12.73;;;5.70;;
60354;SDS011;46198;51.464;-0.066;2023-04-24T12:16:52;11.48;;;7.18;;
60354;SDS011;46198;51.464;-0.066;2023-04-24T12:19:22;11.90;;;7.60;;
60354;SDS011;46198;51.464;-0.066;2023-04-24T12:22:00;12.00;;;6.05;;
60354;SDS011;46198;51.464;-0.066;2023-04-24T12:24:29;9.13;;;5.28;;
60354;SDS011;46198;51.464;-0.066;2023-04-24T12:26:57;9.63;;;5.82;;
60354;SDS011;46198;51.464;-0.066;2023-04-24T12:29:28;7.25;;;4.78;;
60354;SDS011;46198;51.464;-0.066;2023-04-24T12:31:56;7.70;;;5.65;;
60354;SDS011;46198;51.464;-0.066;2023-04-24T12:34:25;7.57;;;5.03;;
60354;SDS011;46198;51.464;-0.066;2023-04-24T12:36:53;7.97;;;5.70;;
60354;SDS011;46198;51.464;-0.066;2023-04-24T12:39:22;9.35;;;5.30;;
60354;SDS011;46198;51.464;-0.066;2023-04-24T12:41:56;7.13;;;4.55;;
60354;SDS011;46198;51.464;-0.066;2023-04-24T12:44:31;7.30;;;4.40;;
60354;SDS011;46198;51.464;-0.066;2023-04-24T12:47:01;5.28;;;4.38;;
60354;SDS011;46198;51.464;-0.066;2023-04-24T12:49:30;6.95;;;4.60;;
60354;SDS011;46198;51.464;-0.066;2023-04-24T12:52:00;7.75;;;4.25;;
60354;SDS011;46198;51.464;-0.066;2023-04-24T12:54:31;7.25;;;4.63;;
60354;SDS011;46198;51.464;-0.066;2023-04-24T12:57:00;5.93;;;3.65;;
60354;SDS011;46198;51.464;-0.066;2023-04-24T12:59:28;7.07;;;4.32;;
60354;SDS011;46198;51.464;-0.066;2023-04-24T13:01:56;5.63;;;4.05;;
60354;SDS011;46198;51.464;-0.066;2023-04-24T13:04:24;7.53;;;3.88;;
60354;SDS011;46198;51.464;-0.066;2023-04-24T13:06:54;5.78;;;3.90;;
60354;SDS011;46198;51.464;-0.066;2023-04-24T13:09:24;7.55;;;3.67;;
60354;SDS011;46198;51.464;-0.066;2023-04-24T13:11:52;7.28;;;4.68;;
60354;SDS011;46198;51.464;-0.066;2023-04-24T13:14:20;5.68;;;3.95;;
60354;SDS011;46198;51.464;-0.066;2023-04-24T13:16:48;8.57;;;4.70;;
60354;SDS011;46198;51.464;-0.066;2023-04-24T13:19:17;6.95;;;4.28;;
60354;SDS011;46198;51.464;-0.066;2023-04-24T13:21:46;9.80;;;4.78;;
60354;SDS011;46198;51.464;-0.066;2023-04-24T13:24:18;6.22;;;4.13;;
60354;SDS011;46198;51.464;-0.066;2023-04-24T13:26:47;7.63;;;4.45;;
60354;SDS011;46198;51.464;-0.066;2023-04-24T13:29:19;6.88;;;4.43;;
60354;SDS011;46198;51.464;-0.066;2023-04-24T13:31:49;6.03;;;4.05;;
60354;SDS011;46198;51.464;-0.066;2023-04-24T13:34:18;6.25;;;4.35;;
60354;SDS011;46198;51.464;-0.066;2023-04-24T13:36:47;6.43;;;4.40;;
60354;SDS011;46198;51.464;-0.066;2023-04-24T13:39:18;6.18;;;4.55;;
60354;SDS011;46198;51.464;-0.066;2023-04-24T13:41:47;7.65;;;4.80;;
60354;SDS011;46198;51.464;-0.066;2023-04-24T13:44:15;6.05;;;4.28;;
60354;SDS011;46198;51.464;-0.066;2023-04-24T13:46:44;6.15;;;3.88;;
60354;SDS011;46198;51.464;-0.066;2023-04-24T13:49:13;7.35;;;4.07;;
60354;SDS011;46198;51.464;-0.066;2023-04-24T13:51:43;8.20;;;4.40;;
60354;SDS011;46198;51.464;-0.066;2023-04-24T13:54:12;8.63;;;4.47;;
60354;SDS011;46198;51.464;-0.066;2023-04-24T13:56:42;6.90;;;4.10;;
60354;SDS011;46198;51.464;-0.066;2023-04-24T13:59:11;6.30;;;4.63;;
60354;SDS011;46198;51.464;-0.066;2023-04-24T14:01:40;6.57;;;3.92;;
60354;SDS011;46198;51.464;-0.066;2023-04-24T14:04:08;6.65;;;4.03;;
60354;SDS011;46198;51.464;-0.066;2023-04-24T14:09:29;6.15;;;3.60;;
60354;SDS011;46198;51.464;-0.066;2023-04-24T14:11:59;6.35;;;3.60;;
60354;SDS011;46198;51.464;-0.066;2023-04-24T14:14:28;7.38;;;4.03;;
60354;SDS011;46198;51.464;-0.066;2023-04-24T14:16:56;7.20;;;3.70;;
60354;SDS011;46198;51.464;-0.066;2023-04-24T14:19:25;5.88;;;3.47;;
60354;SDS011;46198;51.464;-0.066;2023-04-24T14:21:53;5.13;;;3.40;;
60354;SDS011;46198;51.464;-0.066;2023-04-24T14:24:23;6.63;;;3.40;;
60354;SDS011;46198;51.464;-0.066;2023-04-24T14:26:51;7.15;;;3.60;;
60354;SDS011;46198;51.464;-0.066;2023-04-24T14:29:20;4.63;;;2.80;;
60354;SDS011;46198;51.464;-0.066;2023-04-24T14:31:48;5.93;;;3.30;;
60354;SDS011;46198;51.464;-0.066;2023-04-24T14:34:17;5.07;;;3.38;;
60354;SDS011;46198;51.464;-0.066;2023-04-24T14:36:46;4.95;;;3.45;;
60354;SDS011;46198;51.464;-0.066;2023-04-24T14:39:14;6.45;;;3.22;;
60354;SDS011;46198;51.464;-0.066;2023-04-24T14:41:42;4.43;;;3.70;;
60354;SDS011;46198;51.464;-0.066;2023-04-24T14:44:10;6.13;;;3.85;;
60354;SDS011;46198;51.464;-0.066;2023-04-24T14:46:39;6.03;;;3.60;;
60354;SDS011;46198;51.464;-0.066;2023-04-24T14:49:07;6.13;;;3.38;;
60354;SDS011;46198;51.464;-0.066;2023-04-24T14:51:36;7.18;;;3.65;;
60354;SDS011;46198;51.464;-0.066;2023-04-24T14:54:04;6.32;;;3.25;;